Time;durP1;ratioP1;P1;durP2;ratioP2;P2;SDS_P1;SDS_P2;PMS_P1;PMS_P2;Temp;Humidity;BMP_temperature;BMP_pressure;BME280_temperature;BME280_humidity;BME280_pressure;Samples;Min_cycle;Max_cycle;Signal;HPM_P1;HPM_P2
2022/03/20 00:00:05;;;;;;;15.55;7.30;;;;;;;6.28;26.71;102276.72;4405974;32;33981;-60
2022/03/20 00:02:38;;;;;;;14.82;7.57;;;;;;;6.08;26.89;102273.03;4407300;32;34139;-60
2022/03/20 00:05:07;;;;;;;12.98;7.12;;;;;;;5.95;27.32;102277.69;4380701;32;33724;-60
2022/03/20 00:07:34;;;;;;;13.80;6.78;;;;;;;5.92;27.36;102274.75;4406423;32;34757;-60
2022/03/20 00:10:05;;;;;;;17.37;7.60;;;;;;;5.71;27.42;102274.34;4406927;32;32454;-60
2022/03/20 00:12:35;;;;;;;13.45;6.05;;;;;;;5.77;27.48;102273.16;4406160;32;32941;-60
2022/03/20 00:15:03;;;;;;;13.13;7.03;;;;;;;5.72;27.64;102275.25;4406704;32;33594;-60
2022/03/20 00:17:31;;;;;;;14.55;6.95;;;;;;;5.47;28.08;102266.66;4406530;32;32438;-60
2022/03/20 00:19:58;;;;;;;15.57;7.80;;;;;;;5.63;27.80;102275.22;4407305;32;34982;-60
2022/03/20 00:22:27;;;;;;;13.50;7.10;;;;;;;5.81;27.57;102267.56;4406837;32;34510;-60
2022/03/20 00:24:54;;;;;;;15.00;6.37;;;;;;;5.46;27.85;102270.87;4407931;32;33763;-61
2022/03/20 00:27:22;;;;;;;13.05;7.03;;;;;;;5.34;28.12;102271.25;4407571;32;32172;-60
2022/03/20 00:29:50;;;;;;;13.90;7.18;;;;;;;5.51;28.08;102268.78;4407613;32;33723;-60
2022/03/20 00:32:19;;;;;;;16.92;7.57;;;;;;;5.30;28.25;102270.94;4408608;32;34882;-60
2022/03/20 00:34:48;;;;;;;15.60;6.97;;;;;;;5.04;28.31;102270.75;4408248;32;33513;-60
2022/03/20 00:37:15;;;;;;;13.40;6.30;;;;;;;4.69;28.94;102265.31;4408789;32;34391;-60
2022/03/20 00:39:42;;;;;;;12.60;6.62;;;;;;;4.81;28.61;102267.34;4409124;32;33754;-60
2022/03/20 00:42:10;;;;;;;14.60;6.80;;;;;;;5.02;28.51;102263.59;4407503;32;32434;-60
2022/03/20 00:44:37;;;;;;;14.75;7.35;;;;;;;4.69;29.10;102255.06;4408675;32;33897;-60
2022/03/20 00:47:05;;;;;;;12.60;7.05;;;;;;;4.61;29.22;102262.66;4408540;32;34024;-60
2022/03/20 00:49:33;;;;;;;14.48;7.00;;;;;;;4.97;28.99;102268.28;4408257;32;34767;-60
2022/03/20 00:52:00;;;;;;;14.20;6.70;;;;;;;4.55;29.66;102268.03;4409001;32;34037;-60
2022/03/20 00:54:28;;;;;;;12.75;7.32;;;;;;;4.97;29.29;102267.37;4408972;32;33366;-60
2022/03/20 00:56:55;;;;;;;13.98;6.90;;;;;;;4.62;29.60;102265.41;4408570;32;34777;-60
2022/03/20 00:59:23;;;;;;;14.60;6.87;;;;;;;4.54;29.82;102261.09;4407679;32;34715;-60
2022/03/20 01:01:51;;;;;;;14.07;7.45;;;;;;;4.47;30.19;102262.06;4407656;32;34128;-60
2022/03/20 01:04:19;;;;;;;14.10;8.32;;;;;;;4.66;29.80;102261.50;4406276;32;33608;-60
2022/03/20 01:06:46;;;;;;;16.67;7.43;;;;;;;4.93;29.47;102267.03;4390733;32;32487;-61
2022/03/20 01:09:14;;;;;;;12.82;7.57;;;;;;;5.08;29.31;102256.53;4402801;32;81904;-60
2022/03/20 01:11:42;;;;;;;16.60;7.68;;;;;;;5.05;29.25;102252.00;4405732;32;34821;-60
2022/03/20 01:14:11;;;;;;;13.55;7.20;;;;;;;5.27;28.74;102257.78;4405738;32;33602;-60
2022/03/20 01:16:38;;;;;;;14.30;7.35;;;;;;;5.22;28.96;102250.31;4405370;32;33958;-60
2022/03/20 01:19:06;;;;;;;13.85;6.60;;;;;;;5.10;29.31;102257.66;4406645;32;33562;-60
2022/03/20 01:21:33;;;;;;;13.80;7.78;;;;;;;5.32;28.97;102256.56;4406948;32;34678;-60
2022/03/20 01:24:02;;;;;;;16.37;7.68;;;;;;;5.21;29.28;102253.63;4407578;32;33440;-60
2022/03/20 01:26:30;;;;;;;15.02;7.65;;;;;;;5.13;29.24;102252.81;4407956;32;33893;-60
2022/03/20 01:28:57;;;;;;;12.13;6.95;;;;;;;5.02;29.41;102258.47;4407607;32;33666;-60
2022/03/20 01:31:25;;;;;;;18.10;7.50;;;;;;;4.80;29.76;102260.41;4396656;32;34548;-60
2022/03/20 01:33:53;;;;;;;18.20;7.70;;;;;;;4.91;29.64;102270.19;4405051;32;33593;-60
2022/03/20 01:36:21;;;;;;;13.55;7.20;;;;;;;4.63;30.14;102267.19;4407493;32;34639;-60
2022/03/20 01:38:48;;;;;;;15.32;7.78;;;;;;;4.63;30.35;102271.44;4408102;32;33849;-60
2022/03/20 01:41:16;;;;;;;16.15;7.65;;;;;;;4.69;30.27;102277.22;4408300;32;34129;-60
2022/03/20 01:43:49;;;;;;;14.57;7.25;;;;;;;4.51;30.70;102284.75;4407999;32;33467;-60
2022/03/20 01:46:17;;;;;;;14.95;6.93;;;;;;;4.39;30.87;102280.87;4393740;32;34518;-60
2022/03/20 01:48:45;;;;;;;14.77;7.93;;;;;;;4.27;31.21;102294.94;4407462;32;34833;-61
2022/03/20 01:51:14;;;;;;;16.25;7.50;;;;;;;4.25;31.39;102286.12;4408110;32;34137;-61
2022/03/20 01:53:42;;;;;;;16.55;7.53;;;;;;;4.07;31.70;102292.72;4394096;32;33887;-60
2022/03/20 01:56:10;;;;;;;12.60;7.57;;;;;;;3.89;32.14;102294.16;4406911;32;33800;-60
2022/03/20 01:58:38;;;;;;;15.57;7.75;;;;;;;4.04;32.05;102290.72;4408141;32;34068;-60
2022/03/20 02:01:05;;;;;;;13.75;6.50;;;;;;;3.86;32.20;102298.94;4408143;32;32688;-60
2022/03/20 02:03:33;;;;;;;15.07;7.20;;;;;;;4.25;31.72;102304.09;4415492;27;34286;-84
2022/03/20 02:06:01;;;;;;;16.20;7.22;;;;;;;3.81;32.25;102305.22;4376564;32;33664;-85
2022/03/20 02:08:30;;;;;;;14.82;7.28;;;;;;;4.07;32.00;102306.44;4392897;27;33856;-59
2022/03/20 02:10:57;;;;;;;14.75;7.35;;;;;;;3.83;32.46;102307.22;4393765;32;34018;-59
2022/03/20 02:13:26;;;;;;;12.95;7.18;;;;;;;3.98;32.31;102304.50;4383028;32;33295;-59
2022/03/20 02:15:53;;;;;;;14.38;8.32;;;;;;;3.92;32.42;102305.69;4403245;32;34491;-58
2022/03/20 02:18:21;;;;;;;15.13;7.47;;;;;;;4.29;32.15;102309.75;4398747;32;33984;-60
2022/03/20 02:20:49;;;;;;;14.65;7.65;;;;;;;4.02;32.54;102312.75;4394199;32;34845;-59
2022/03/20 02:23:17;;;;;;;14.13;7.45;;;;;;;3.52;33.31;102313.09;4397304;32;34388;-60
2022/03/20 02:25:49;;;;;;;15.52;7.25;;;;;;;3.55;33.44;102321.13;4389460;32;34510;-59
2022/03/20 02:28:17;;;;;;;12.23;6.22;;;;;;;3.70;33.09;102317.72;4394404;32;33835;-59
2022/03/20 02:30:46;;;;;;;13.75;7.30;;;;;;;4.29;32.02;102304.63;4390032;32;34900;-59
2022/03/20 02:33:14;;;;;;;13.55;7.68;;;;;;;4.20;32.36;102312.94;4390391;32;34285;-60
2022/03/20 02:35:42;;;;;;;16.92;7.68;;;;;;;3.65;33.26;102316.31;4379744;32;33689;-60
2022/03/20 02:38:10;;;;;;;15.68;7.70;;;;;;;3.59;33.42;102313.03;4392357;32;33897;-59
2022/03/20 02:40:38;;;;;;;16.48;7.60;;;;;;;3.49;33.84;102315.31;4390367;32;34850;-59
2022/03/20 02:43:06;;;;;;;15.52;7.45;;;;;;;3.31;34.01;102320.16;4398873;32;33783;-58
2022/03/20 02:45:34;;;;;;;16.12;8.15;;;;;;;3.47;33.87;102316.78;4403141;32;34014;-58
2022/03/20 02:48:06;;;;;;;15.20;7.20;;;;;;;3.52;33.94;102318.25;4391220;32;33993;-59
2022/03/20 02:50:36;;;;;;;16.05;7.68;;;;;;;3.61;33.97;102313.22;4394349;32;34182;-59
2022/03/20 02:53:13;;;;;;;13.93;6.93;;;;;;;3.48;34.02;102319.53;4395169;32;34170;-59
2022/03/20 02:55:45;;;;;;;16.17;7.75;;;;;;;3.25;34.59;102319.47;4398407;32;33710;-59
2022/03/20 02:58:15;;;;;;;13.25;6.53;;;;;;;3.33;34.63;102323.81;4398520;32;33017;-59
2022/03/20 03:00:44;;;;;;;16.42;8.10;;;;;;;2.99;34.98;102328.37;4392952;32;34220;-59
2022/03/20 03:03:12;;;;;;;15.32;7.18;;;;;;;3.14;34.89;102335.25;4375576;32;33420;-60
2022/03/20 03:05:41;;;;;;;16.15;7.22;;;;;;;3.01;35.25;102348.28;4388576;32;33814;-60
2022/03/20 03:10:57;;;;;;;14.90;7.85;;;;;;;3.30;34.69;102345.59;4385315;32;34409;-58
2022/03/20 03:13:30;;;;;;;17.73;8.15;;;;;;;3.34;34.84;102355.47;4378921;32;34222;-59
2022/03/20 03:16:02;;;;;;;15.75;8.02;;;;;;;3.45;34.66;102361.84;4380953;32;34441;-60
2022/03/20 03:18:30;;;;;;;15.45;8.32;;;;;;;3.34;34.81;102358.03;4357724;32;31931;-58
2022/03/20 03:20:59;;;;;;;15.13;8.07;;;;;;;3.23;35.07;102354.25;4364210;32;34208;-59
2022/03/20 03:23:27;;;;;;;17.95;8.55;;;;;;;3.34;35.09;102361.53;4379691;32;33656;-59
2022/03/20 03:25:55;;;;;;;14.60;8.02;;;;;;;3.41;35.18;102367.34;4366911;32;32408;-60
2022/03/20 03:28:28;;;;;;;17.30;8.27;;;;;;;3.76;34.48;102365.31;4378962;32;33909;-59
2022/03/20 03:30:56;;;;;;;17.25;7.93;;;;;;;3.93;34.00;102373.25;4376768;32;33879;-59
2022/03/20 03:33:24;;;;;;;19.77;8.50;;;;;;;3.92;34.23;102373.97;4382164;32;33213;-60
2022/03/20 03:35:53;;;;;;;16.52;7.68;;;;;;;3.43;35.29;102386.37;4369041;32;33984;-59
2022/03/20 03:38:35;;;;;;;16.20;8.23;;;;;;;3.27;35.17;102389.72;4386415;32;34012;-59
2022/03/20 03:41:03;;;;;;;17.58;8.20;;;;;;;3.41;35.18;102388.75;4375777;32;34238;-59
2022/03/20 03:43:31;;;;;;;15.00;8.27;;;;;;;3.39;35.26;102394.44;4386524;32;33589;-58
2022/03/20 03:45:58;;;;;;;16.87;8.48;;;;;;;3.64;34.86;102398.16;4382578;32;33324;-59
2022/03/20 03:48:26;;;;;;;15.38;8.73;;;;;;;3.10;35.72;102402.22;4385455;32;33908;-58
2022/03/20 03:50:54;;;;;;;17.35;8.95;;;;;;;3.03;36.23;102397.13;4377763;32;34181;-59
2022/03/20 03:53:22;;;;;;;18.73;8.25;;;;;;;2.76;36.73;102400.84;4381463;32;36190;-60
2022/03/20 03:55:49;;;;;;;17.58;9.25;;;;;;;2.79;36.84;102406.31;4379131;32;33707;-59
2022/03/20 03:58:17;;;;;;;18.10;8.23;;;;;;;3.21;35.84;102409.53;4384114;32;34641;-60
2022/03/20 04:00:44;;;;;;;18.37;8.75;;;;;;;3.30;35.78;102410.59;4380052;32;34778;-60
2022/03/20 04:03:13;;;;;;;20.95;9.73;;;;;;;3.25;35.89;102406.56;4380628;32;33691;-59
2022/03/20 04:05:40;;;;;;;18.55;9.52;;;;;;;2.90;36.50;102415.28;4385652;32;33803;-60
2022/03/20 04:08:09;;;;;;;15.00;9.05;;;;;;;3.24;35.91;102420.09;4382963;32;34490;-60
2022/03/20 04:10:37;;;;;;;15.32;8.20;;;;;;;2.95;36.37;102425.34;4380550;32;33898;-60
2022/03/20 04:13:04;;;;;;;16.87;8.88;;;;;;;2.74;36.90;102418.59;4379689;32;33626;-59
2022/03/20 04:15:32;;;;;;;16.50;8.57;;;;;;;2.89;36.56;102429.69;4382472;32;34440;-59
2022/03/20 04:18:01;;;;;;;17.83;9.30;;;;;;;3.05;36.46;102429.87;4386866;32;33813;-58
2022/03/20 04:20:29;;;;;;;17.35;8.52;;;;;;;2.59;37.28;102431.19;4386979;32;34170;-60
2022/03/20 04:25:42;;;;;;;17.25;8.88;;;;;;;2.48;37.97;102438.53;4376480;32;33811;-59
2022/03/20 04:28:10;;;;;;;18.05;9.45;;;;;;;2.88;37.16;102433.03;4379471;32;33858;-59
2022/03/20 04:30:37;;;;;;;16.95;9.48;;;;;;;3.20;36.65;102442.63;4365159;32;34354;-59
2022/03/20 04:33:05;;;;;;;18.83;8.70;;;;;;;3.53;36.19;102443.06;4380807;32;33425;-59
2022/03/20 04:35:33;;;;;;;17.77;9.27;;;;;;;3.24;36.55;102448.28;4383638;32;33922;-60
2022/03/20 04:38:04;;;;;;;16.37;8.52;;;;;;;2.79;37.51;102452.41;4379800;32;34515;-59
2022/03/20 04:40:33;;;;;;;18.98;9.23;;;;;;;2.40;38.36;102464.84;4379425;32;34934;-60
2022/03/20 04:43:00;;;;;;;19.85;10.15;;;;;;;2.66;37.96;102459.34;4387326;32;33693;-60
2022/03/20 04:45:28;;;;;;;18.42;9.38;;;;;;;3.33;36.66;102462.16;4369538;32;33199;-59
2022/03/20 04:59:02;;;;;;;19.58;10.00;;;;;;;2.04;39.59;102469.91;4380759;32;33938;-58
2022/03/20 05:01:30;;;;;;;19.52;10.10;;;;;;;2.76;38.19;102487.87;4368154;32;33475;-59
2022/03/20 05:03:58;;;;;;;19.42;10.18;;;;;;;2.40;39.15;102490.44;4378841;32;34459;-60
2022/03/20 05:06:27;;;;;;;19.10;10.60;;;;;;;2.32;38.97;102493.72;4385272;32;32339;-60
2022/03/20 05:13:19;;;;;;;19.85;9.35;;;;;;;2.43;38.89;102490.78;4398450;32;33909;-59
2022/03/20 05:14:46;;;;;;;18.42;9.90;;;;;;;1.86;40.59;102490.69;4397721;32;33571;-58
2022/03/20 05:17:14;;;;;;;20.77;10.10;;;;;;;1.73;40.86;102494.25;4391262;32;33384;-59
2022/03/20 05:19:43;;;;;;;21.60;10.38;;;;;;;2.08;40.36;102495.09;4393847;32;33721;-60
2022/03/20 05:22:10;;;;;;;17.30;9.80;;;;;;;2.54;39.62;102505.78;4391526;32;34546;-60
2022/03/20 05:24:39;;;;;;;21.25;10.95;;;;;;;2.36;39.65;102503.59;4392939;32;33656;-60
2022/03/20 05:27:07;;;;;;;21.30;10.55;;;;;;;1.98;40.54;102507.50;4378001;32;33879;-60
2022/03/20 05:29:35;;;;;;;16.92;9.90;;;;;;;2.21;40.02;102511.97;4394277;32;33772;-60
2022/03/20 05:32:04;;;;;;;20.20;9.98;;;;;;;2.74;39.18;102517.47;4391862;32;33871;-59
2022/03/20 05:34:33;;;;;;;22.30;10.25;;;;;;;2.32;39.94;102526.97;4382869;32;33858;-60
2022/03/20 05:37:01;;;;;;;21.27;10.82;;;;;;;2.49;39.77;102522.25;4392763;32;33903;-58
2022/03/20 05:39:28;;;;;;;19.33;10.48;;;;;;;2.68;39.42;102520.22;4398671;32;33973;-60
2022/03/20 05:41:56;;;;;;;20.83;10.43;;;;;;;2.50;39.59;102524.06;4393510;32;33915;-59
2022/03/20 05:44:25;;;;;;;19.23;10.30;;;;;;;3.04;38.79;102524.44;4395540;32;33669;-60
2022/03/20 05:46:54;;;;;;;20.75;9.88;;;;;;;3.09;38.65;102531.00;4392148;32;33923;-59
2022/03/20 05:49:23;;;;;;;17.62;9.77;;;;;;;3.19;38.71;102523.69;4394300;32;34779;-60
2022/03/20 05:51:52;;;;;;;23.95;11.75;;;;;;;3.27;38.74;102528.06;4390148;32;34085;-59
2022/03/20 05:54:20;;;;;;;18.02;10.60;;;;;;;3.29;38.69;102534.28;4393578;32;33763;-60
2022/03/20 05:59:37;;;;;;;21.45;11.68;;;;;;;3.16;38.75;102531.00;4394112;32;34823;-60
2022/03/20 06:02:08;;;;;;;22.42;11.12;;;;;;;3.58;38.25;102535.88;4395173;32;32398;-60
2022/03/20 06:04:38;;;;;;;22.08;11.35;;;;;;;3.60;38.00;102530.16;4397807;32;33490;-60
2022/03/20 06:07:08;;;;;;;20.58;11.80;;;;;;;3.78;37.55;102535.59;4389563;32;33523;-59
2022/03/20 06:09:37;;;;;;;22.13;11.55;;;;;;;3.87;37.80;102544.38;4376315;32;33034;-60
2022/03/20 06:12:07;;;;;;;22.75;11.05;;;;;;;3.23;38.76;102551.50;4392144;32;32800;-60
2022/03/20 06:14:35;;;;;;;18.48;10.88;;;;;;;3.06;39.25;102558.81;4391056;32;33485;-59
2022/03/20 06:17:05;;;;;;;22.08;11.82;;;;;;;2.67;40.28;102566.13;4388920;32;32536;-59
2022/03/20 06:19:35;;;;;;;19.30;10.50;;;;;;;2.72;40.33;102565.97;4387996;32;33995;-59
2022/03/20 06:22:03;;;;;;;19.75;10.60;;;;;;;3.31;39.61;102571.22;4391319;32;34190;-59
2022/03/20 06:24:31;;;;;;;21.77;11.15;;;;;;;3.86;38.46;102570.72;4388055;32;31979;-60
2022/03/20 06:27:00;;;;;;;18.62;10.73;;;;;;;3.21;39.65;102578.56;4389971;32;33604;-58
2022/03/20 06:29:27;;;;;;;21.70;11.23;;;;;;;3.53;38.86;102578.87;4394953;32;33895;-59
2022/03/20 06:31:55;;;;;;;22.08;10.98;;;;;;;3.20;39.98;102576.72;4398780;32;33913;-60
2022/03/20 06:34:22;;;;;;;24.52;10.93;;;;;;;3.12;40.01;102577.47;4399560;32;33610;-59
2022/03/20 06:36:50;;;;;;;20.42;10.45;;;;;;;2.79;40.35;102585.50;4403435;32;34468;-58
2022/03/20 06:39:17;;;;;;;22.60;10.85;;;;;;;2.98;40.42;102582.63;4399099;32;34143;-58
2022/03/20 06:41:45;;;;;;;24.55;11.77;;;;;;;3.66;38.91;102591.50;4402154;32;34168;-59
2022/03/20 06:44:15;;;;;;;28.17;12.27;;;;;;;3.83;38.79;102589.25;4391271;32;33727;-58
2022/03/20 06:46:44;;;;;;;26.00;12.40;;;;;;;3.86;38.48;102597.31;4389819;32;34090;-59
2022/03/20 06:49:11;;;;;;;18.12;10.45;;;;;;;3.77;38.64;102587.59;4378820;32;33543;-59
2022/03/20 06:51:39;;;;;;;16.75;8.80;;;;;;;4.21;37.69;102591.84;4396096;32;34051;-58
2022/03/20 06:54:07;;;;;;;18.23;9.65;;;;;;;4.56;36.97;102587.25;4400527;32;34032;-59
2022/03/20 06:56:34;;;;;;;16.67;8.52;;;;;;;4.80;36.45;102600.28;4378953;32;34397;-59
2022/03/20 06:59:02;;;;;;;16.73;8.38;;;;;;;4.51;36.71;102605.59;4393227;32;34740;-59
2022/03/20 07:01:30;;;;;;;18.45;9.02;;;;;;;4.91;36.18;102604.09;4393067;32;34179;-59
2022/03/20 07:03:58;;;;;;;14.43;7.82;;;;;;;4.81;36.45;102599.56;4391993;32;32154;-59
2022/03/20 07:06:28;;;;;;;16.42;8.30;;;;;;;5.01;35.73;102606.94;4379690;32;33870;-59
2022/03/20 07:08:59;;;;;;;15.77;7.97;;;;;;;5.20;35.55;102609.91;4393084;32;33897;-59
2022/03/20 07:11:32;;;;;;;15.13;8.05;;;;;;;5.45;35.09;102604.91;4392856;32;34337;-59
2022/03/20 07:14:01;;;;;;;15.60;8.10;;;;;;;5.15;35.25;102616.19;4383900;32;32301;-59
2022/03/20 07:16:30;;;;;;;13.95;7.57;;;;;;;5.85;34.26;102616.97;4399153;32;34005;-59
2022/03/20 07:18:58;;;;;;;13.48;8.10;;;;;;;6.03;33.94;102619.00;4388641;32;33933;-59
2022/03/20 07:21:28;;;;;;;15.93;8.40;;;;;;;5.53;34.94;102634.03;4378900;32;34579;-59
2022/03/20 07:23:57;;;;;;;14.98;8.63;;;;;;;5.99;34.06;102616.84;4389814;32;34557;-59
2022/03/20 07:32:04;;;;;;;14.38;7.37;;;;;;;6.02;33.53;102621.41;4402535;32;34142;-61
2022/03/20 07:34:34;;;;;;;16.45;8.63;;;;;;;6.06;34.03;102631.28;4394110;32;34165;-59
2022/03/20 07:37:03;;;;;;;17.45;8.35;;;;;;;5.93;34.03;102631.59;4394479;32;34034;-60
2022/03/20 07:39:31;;;;;;;17.73;8.25;;;;;;;6.36;33.33;102625.97;4395318;32;34564;-60
2022/03/20 07:42:00;;;;;;;15.60;7.87;;;;;;;5.96;32.93;102633.63;4392307;32;34304;-59
2022/03/20 07:44:31;;;;;;;14.75;7.65;;;;;;;6.42;33.03;102625.69;4393455;32;33636;-59
2022/03/20 07:46:58;;;;;;;14.23;8.27;;;;;;;5.26;34.19;102631.13;4374927;32;33636;-60
2022/03/20 07:49:30;;;;;;;14.40;8.20;;;;;;;6.53;32.75;102624.25;4394137;32;33591;-60
2022/03/20 07:51:57;;;;;;;15.00;8.25;;;;;;;6.16;32.59;102623.84;4393739;32;34175;-59
2022/03/20 07:54:26;;;;;;;15.27;8.10;;;;;;;6.37;32.33;102629.44;4394380;32;34254;-59
2022/03/20 07:56:53;;;;;;;16.60;8.00;;;;;;;6.76;32.37;102626.69;4394407;32;34602;-60
2022/03/20 07:59:21;;;;;;;17.33;8.32;;;;;;;6.58;32.10;102635.97;4392065;32;34552;-59
2022/03/20 08:01:49;;;;;;;15.52;8.82;;;;;;;6.98;31.79;102627.28;4392393;32;34078;-60
2022/03/20 08:04:17;;;;;;;14.73;8.43;;;;;;;7.34;31.75;102630.19;4393689;32;33797;-60
2022/03/20 08:06:45;;;;;;;24.23;9.02;;;;;;;6.59;31.73;102630.97;4399119;32;34419;-61
2022/03/20 08:09:12;;;;;;;19.17;8.45;;;;;;;6.99;31.87;102629.09;4391514;32;33753;-60
2022/03/20 08:11:40;;;;;;;15.90;8.88;;;;;;;7.35;31.38;102628.53;4393190;32;34583;-59
2022/03/20 08:14:08;;;;;;;14.93;7.80;;;;;;;7.13;31.71;102639.19;4391992;32;33282;-60
2022/03/20 08:16:39;;;;;;;15.35;9.18;;;;;;;6.46;31.85;102631.34;4388559;32;33473;-59
2022/03/20 08:19:09;;;;;;;14.23;8.55;;;;;;;6.29;32.52;102633.75;4391978;32;33733;-59
2022/03/20 08:21:38;;;;;;;18.23;8.88;;;;;;;6.15;33.35;102628.81;4391874;32;32702;-59
2022/03/20 08:24:05;;;;;;;15.23;8.65;;;;;;;6.00;32.68;102631.53;4391521;32;33169;-59
2022/03/20 08:26:33;;;;;;;15.32;8.25;;;;;;;7.14;31.50;102622.97;4390699;32;34654;-59
2022/03/20 08:29:01;;;;;;;17.52;7.70;;;;;;;7.41;30.58;102629.16;4391419;32;33198;-59
2022/03/20 08:31:29;;;;;;;14.85;8.27;;;;;;;7.68;31.32;102619.06;4385470;32;34197;-60
2022/03/20 08:33:57;;;;;;;15.50;8.35;;;;;;;7.25;30.60;102614.66;4390991;32;33700;-60
2022/03/20 08:36:24;;;;;;;11.77;6.75;;;;;;;7.81;30.19;102610.91;4391467;32;32895;-60
2022/03/20 08:38:52;;;;;;;18.95;7.85;;;;;;;8.12;30.43;102615.66;4391163;32;33863;-60
2022/03/20 08:41:20;;;;;;;13.55;8.05;;;;;;;8.46;29.48;102618.25;4390626;32;34946;-60
2022/03/20 08:43:48;;;;;;;13.13;7.32;;;;;;;7.39;30.08;102621.25;4391214;32;33564;-60
2022/03/20 08:46:16;;;;;;;11.98;7.60;;;;;;;7.68;29.37;102613.91;4392074;32;33838;-60
2022/03/20 08:48:44;;;;;;;12.80;6.75;;;;;;;7.65;30.21;102607.53;4392927;32;33925;-59
2022/03/20 08:51:11;;;;;;;12.63;7.43;;;;;;;8.36;28.90;102617.16;4392019;32;34319;-60
2022/03/20 08:53:39;;;;;;;13.38;6.87;;;;;;;7.90;29.10;102616.09;4396984;32;33116;-58
2022/03/20 08:56:07;;;;;;;12.80;6.70;;;;;;;8.63;28.46;102621.56;4390711;32;34002;-59
2022/03/20 08:58:34;;;;;;;12.10;6.97;;;;;;;8.71;27.98;102619.72;4395049;32;34063;-60
2022/03/20 09:01:02;;;;;;;11.12;6.72;;;;;;;9.54;27.27;102607.91;4391600;32;34067;-61
2022/03/20 09:03:30;;;;;;;12.63;6.72;;;;;;;9.54;27.20;102607.91;4390925;32;33423;-59
2022/03/20 09:05:57;;;;;;;14.85;7.22;;;;;;;9.70;27.05;102617.09;4368646;32;32373;-60
2022/03/20 09:08:25;;;;;;;12.65;7.32;;;;;;;9.43;27.71;102608.56;4391869;32;33390;-60
2022/03/20 09:10:52;;;;;;;14.32;7.00;;;;;;;8.24;28.49;102619.44;4391487;32;34273;-58
2022/03/20 09:13:20;;;;;;;13.70;7.35;;;;;;;7.72;29.17;102609.06;4391321;32;33430;-59
2022/03/20 09:18:59;;;;;;;14.48;7.53;;;;;;;7.92;29.72;102617.16;4392392;32;33783;-60
2022/03/20 09:21:21;;;;;;;10.63;5.75;;;;;;;8.75;28.27;102609.87;4389189;32;35111;-61
2022/03/20 09:23:49;;;;;;;12.37;6.95;;;;;;;9.45;26.32;102602.75;4392318;32;33638;-60
2022/03/20 09:26:16;;;;;;;11.23;6.22;;;;;;;9.95;25.80;102599.56;4377514;32;34638;-59
2022/03/20 09:28:45;;;;;;;12.57;7.30;;;;;;;9.61;26.08;102589.56;4392345;32;33984;-60
2022/03/20 09:31:14;;;;;;;12.95;7.15;;;;;;;9.77;25.95;102585.81;4394015;32;32987;-60
2022/03/20 09:33:42;;;;;;;11.55;6.72;;;;;;;10.41;26.17;102581.38;4374229;32;33715;-59
2022/03/20 09:36:12;;;;;;;12.63;6.95;;;;;;;10.03;26.21;102585.63;4390861;32;34448;-59
2022/03/20 09:38:40;;;;;;;10.82;6.25;;;;;;;9.15;26.19;102582.63;4392189;32;35512;-58
2022/03/20 09:41:08;;;;;;;11.50;6.45;;;;;;;10.08;26.02;102588.63;4380313;32;34161;-58
2022/03/20 09:43:41;;;;;;;11.90;7.12;;;;;;;10.76;25.30;102581.03;4389345;32;34187;-58
2022/03/20 09:46:21;;;;;;;12.23;6.78;;;;;;;10.77;24.54;102577.62;4389371;32;33943;-58
2022/03/20 09:48:48;;;;;;;10.40;6.57;;;;;;;10.98;25.28;102577.72;4389358;32;34543;-58
2022/03/20 09:51:17;;;;;;;10.57;5.80;;;;;;;9.98;24.99;102581.69;4390029;32;34080;-58
2022/03/20 09:53:44;;;;;;;12.00;6.75;;;;;;;8.94;25.69;102583.19;4387593;32;33737;-58
2022/03/20 09:56:12;;;;;;;11.77;5.80;;;;;;;9.20;26.13;102583.09;4391862;32;34660;-58
2022/03/20 09:58:40;;;;;;;10.93;6.40;;;;;;;10.13;25.02;102587.38;4388055;32;33862;-58
2022/03/20 10:01:08;;;;;;;9.88;6.18;;;;;;;9.59;25.70;102583.34;4390255;32;32641;-59
2022/03/20 10:03:37;;;;;;;13.38;6.43;;;;;;;9.33;25.33;102574.81;4390809;32;33483;-59
2022/03/20 10:06:17;;;;;;;11.93;5.90;;;;;;;9.62;26.07;102581.03;4376532;32;33987;-59
2022/03/20 10:08:58;;;;;;;12.30;6.62;;;;;;;9.32;26.03;102573.00;4390655;32;33710;-60
2022/03/20 10:11:27;;;;;;;17.25;6.78;;;;;;;10.74;25.25;102567.00;4389841;32;33951;-58
2022/03/20 10:14:13;;;;;;;10.88;6.10;;;;;;;10.24;25.82;102560.78;4390508;32;33310;-60
2022/03/20 10:16:43;;;;;;;9.98;5.97;;;;;;;11.27;24.30;102563.78;4389719;32;33819;-59
2022/03/20 10:19:23;;;;;;;12.02;7.22;;;;;;;11.41;23.83;102561.59;4387727;32;33879;-58
2022/03/20 10:21:59;;;;;;;11.63;6.90;;;;;;;11.70;23.87;102562.22;4390400;32;35001;-59
2022/03/20 10:24:29;;;;;;;14.00;7.22;;;;;;;12.51;22.38;102552.50;4392208;32;34594;-59
2022/03/20 10:26:59;;;;;;;13.02;6.60;;;;;;;11.79;22.75;102560.41;4376636;32;33993;-59
2022/03/20 10:29:29;;;;;;;12.70;6.62;;;;;;;12.29;22.95;102553.34;4390121;32;34498;-59
2022/03/20 10:32:08;;;;;;;15.32;6.82;;;;;;;13.25;22.17;102547.91;4390125;32;33533;-59
2022/03/20 10:34:49;;;;;;;11.05;6.65;;;;;;;12.91;22.64;102547.88;4385328;32;33822;-59
2022/03/20 10:37:18;;;;;;;11.95;7.25;;;;;;;12.98;23.13;102547.59;4382258;32;33078;-58
2022/03/20 10:39:45;;;;;;;11.00;6.57;;;;;;;13.12;21.68;102546.06;4390472;32;33765;-59
2022/03/20 10:42:15;;;;;;;9.95;6.30;;;;;;;13.57;22.01;102538.31;4393244;32;34053;-59
2022/03/20 10:44:43;;;;;;;8.13;5.57;;;;;;;14.00;21.51;102534.53;4393226;32;34345;-58
2022/03/20 10:47:16;;;;;;;9.82;6.55;;;;;;;12.86;22.70;102538.78;4382330;32;34759;-59
2022/03/20 10:50:00;;;;;;;13.20;6.80;;;;;;;12.02;23.51;102551.97;4390714;32;33501;-59
2022/03/20 10:52:29;;;;;;;10.13;6.22;;;;;;;11.61;23.95;102545.09;4389196;32;34262;-59
2022/03/20 10:54:57;;;;;;;13.43;6.57;;;;;;;12.61;22.70;102517.72;4379082;32;33928;-59
2022/03/20 10:57:32;;;;;;;11.02;7.12;;;;;;;13.25;22.38;102542.72;4390145;32;34650;-59
2022/03/20 11:00:05;;;;;;;10.70;6.45;;;;;;;13.54;21.44;102526.75;4378180;32;34564;-59
2022/03/20 11:02:36;;;;;;;13.02;6.80;;;;;;;13.64;21.21;102523.19;4391577;32;33854;-59
2022/03/20 11:05:04;;;;;;;13.90;7.57;;;;;;;13.89;21.58;102525.94;4391830;32;33059;-59
2022/03/20 11:07:31;;;;;;;11.65;7.10;;;;;;;14.41;20.66;102523.62;4396382;32;34580;-59
2022/03/20 11:10:00;;;;;;;14.48;7.80;;;;;;;13.81;22.07;102517.56;4380872;32;34745;-60
2022/03/20 11:12:32;;;;;;;13.65;7.15;;;;;;;14.18;20.87;102515.06;4392703;32;34118;-58
2022/03/20 11:15:02;;;;;;;12.23;7.05;;;;;;;14.20;20.58;102513.47;4385380;32;34304;-58
2022/03/20 11:17:44;;;;;;;11.73;6.80;;;;;;;14.35;20.75;102509.38;4391636;32;33821;-58
2022/03/20 11:20:14;;;;;;;15.25;7.12;;;;;;;14.57;19.63;102502.25;4392167;32;33645;-58
2022/03/20 11:22:47;;;;;;;10.82;6.78;;;;;;;13.84;20.48;102502.13;4390346;32;33366;-58
2022/03/20 11:25:22;;;;;;;10.25;6.78;;;;;;;14.00;20.43;102498.97;4387855;32;33213;-58
2022/03/20 11:27:59;;;;;;;11.25;6.72;;;;;;;13.97;20.78;102498.75;4389564;32;33967;-60
2022/03/20 11:30:29;;;;;;;11.75;6.90;;;;;;;14.37;20.00;102491.25;4387674;32;34752;-60
2022/03/20 11:33:00;;;;;;;12.93;7.15;;;;;;;14.24;19.83;102489.44;4391248;32;35965;-60
2022/03/20 11:35:30;;;;;;;10.85;6.28;;;;;;;13.70;20.69;102487.19;4368066;32;34283;-60
2022/03/20 11:38:18;;;;;;;11.12;6.62;;;;;;;14.26;19.79;102487.84;4395420;32;33667;-60
2022/03/20 11:41:04;;;;;;;13.55;7.15;;;;;;;14.65;19.39;102472.38;4390924;32;33900;-60
2022/03/20 11:43:32;;;;;;;10.45;6.40;;;;;;;14.54;18.78;102464.69;4392708;32;34709;-60
2022/03/20 11:46:12;;;;;;;11.25;6.15;;;;;;;14.35;18.67;102456.31;4396312;32;33587;-60
2022/03/20 11:48:39;;;;;;;10.40;6.20;;;;;;;13.80;19.71;102455.81;4392421;32;33841;-60
2022/03/20 11:51:08;;;;;;;8.88;5.87;;;;;;;13.92;20.25;102442.78;4392817;32;33804;-60
2022/03/20 11:53:40;;;;;;;10.48;6.78;;;;;;;13.95;20.04;102456.94;4386404;32;34949;-60
2022/03/20 11:56:30;;;;;;;11.45;6.32;;;;;;;14.26;19.17;102451.34;4386995;32;33843;-61
2022/03/20 11:58:58;;;;;;;11.45;6.68;;;;;;;14.20;19.13;102450.91;4394908;32;33920;-60
2022/03/20 12:01:25;;;;;;;10.27;6.70;;;;;;;14.72;18.76;102443.34;4392610;32;33586;-62